sensor_id;sensor_type;location;lat;lon;timestamp;P1;durP1;ratioP1;P2;durP2;ratioP2
23490;SDS011;14683;50.038;8.078;2023-08-06T03:01:32;3.22;;;2.03;;
23490;SDS011;14683;50.038;8.078;2023-08-06T03:04:41;2.33;;;2.05;;
23490;SDS011;14683;50.038;8.078;2023-08-06T03:07:44;3.90;;;1.92;;
23490;SDS011;14683;50.038;8.078;2023-08-06T03:10:52;2.53;;;2.10;;
23490;SDS011;14683;50.038;8.078;2023-08-06T03:13:54;3.22;;;1.90;;
23490;SDS011;14683;50.038;8.078;2023-08-06T03:16:55;2.55;;;1.95;;
23490;SDS011;14683;50.038;8.078;2023-08-06T03:19:56;5.90;;;2.35;;
23490;SDS011;14683;50.038;8.078;2023-08-06T03:22:59;2.67;;;1.85;;
23490;SDS011;14683;50.038;8.078;2023-08-06T03:26:02;2.40;;;2.20;;
23490;SDS011;14683;50.038;8.078;2023-08-06T03:29:06;5.07;;;2.10;;
23490;SDS011;14683;50.038;8.078;2023-08-06T03:32:09;2.60;;;1.98;;
23490;SDS011;14683;50.038;8.078;2023-08-06T03:35:10;3.20;;;2.17;;
23490;SDS011;14683;50.038;8.078;2023-08-06T03:38:12;2.85;;;1.80;;
23490;SDS011;14683;50.038;8.078;2023-08-06T03:41:13;3.67;;;2.30;;
23490;SDS011;14683;50.038;8.078;2023-08-06T03:44:14;3.70;;;2.15;;
23490;SDS011;14683;50.038;8.078;2023-08-06T03:47:16;3.03;;;1.95;;
23490;SDS011;14683;50.038;8.078;2023-08-06T03:50:18;3.08;;;2.03;;
23490;SDS011;14683;50.038;8.078;2023-08-06T03:53:21;5.68;;;1.88;;
23490;SDS011;14683;50.038;8.078;2023-08-06T03:56:22;2.50;;;1.70;;
23490;SDS011;14683;50.038;8.078;2023-08-06T03:59:24;4.95;;;2.40;;
23490;SDS011;14683;50.038;8.078;2023-08-06T04:02:25;2.63;;;1.92;;
23490;SDS011;14683;50.038;8.078;2023-08-06T04:05:30;2.95;;;2.10;;
23490;SDS011;14683;50.038;8.078;2023-08-06T04:08:33;3.42;;;1.90;;
23490;SDS011;14683;50.038;8.078;2023-08-06T04:11:34;4.80;;;1.63;;
23490;SDS011;14683;50.038;8.078;2023-08-06T04:14:37;4.30;;;1.73;;
23490;SDS011;14683;50.038;8.078;2023-08-06T04:17:38;2.42;;;1.67;;
23490;SDS011;14683;50.038;8.078;2023-08-06T04:20:48;6.07;;;2.00;;
23490;SDS011;14683;50.038;8.078;2023-08-06T04:23:50;2.95;;;1.60;;
23490;SDS011;14683;50.038;8.078;2023-08-06T04:26:53;4.05;;;1.70;;
23490;SDS011;14683;50.038;8.078;2023-08-06T04:29:54;3.28;;;1.50;;
23490;SDS011;14683;50.038;8.078;2023-08-06T04:32:56;2.90;;;1.40;;
23490;SDS011;14683;50.038;8.078;2023-08-06T04:35:59;1.90;;;1.10;;
23490;SDS011;14683;50.038;8.078;2023-08-06T04:39:01;2.13;;;1.58;;
23490;SDS011;14683;50.038;8.078;2023-08-06T04:42:03;2.28;;;1.50;;
23490;SDS011;14683;50.038;8.078;2023-08-06T04:45:05;3.05;;;1.20;;
23490;SDS011;14683;50.038;8.078;2023-08-06T04:48:07;1.13;;;1.00;;
23490;SDS011;14683;50.038;8.078;2023-08-06T04:51:08;2.10;;;1.27;;
23490;SDS011;14683;50.038;8.078;2023-08-06T04:54:09;2.50;;;1.20;;
23490;SDS011;14683;50.038;8.078;2023-08-06T04:57:10;1.45;;;1.00;;
23490;SDS011;14683;50.038;8.078;2023-08-06T05:00:11;1.33;;;0.90;;
23490;SDS011;14683;50.038;8.078;2023-08-06T05:03:15;2.10;;;0.88;;
23490;SDS011;14683;50.038;8.078;2023-08-06T05:06:17;1.52;;;0.98;;
23490;SDS011;14683;50.038;8.078;2023-08-06T05:09:18;1.13;;;0.90;;
23490;SDS011;14683;50.038;8.078;2023-08-06T05:12:19;1.63;;;0.80;;
23490;SDS011;14683;50.038;8.078;2023-08-06T05:15:20;1.55;;;0.82;;
23490;SDS011;14683;50.038;8.078;2023-08-06T05:18:21;1.67;;;1.13;;
23490;SDS011;14683;50.038;8.078;2023-08-06T05:21:22;1.65;;;0.82;;
23490;SDS011;14683;50.038;8.078;2023-08-06T05:24:23;1.00;;;0.88;;
23490;SDS011;14683;50.038;8.078;2023-08-06T05:27:25;2.50;;;0.90;;
23490;SDS011;14683;50.038;8.078;2023-08-06T05:30:26;1.77;;;0.80;;
23490;SDS011;14683;50.038;8.078;2023-08-06T05:33:27;0.60;;;0.60;;
23490;SDS011;14683;50.038;8.078;2023-08-06T05:36:28;0.60;;;0.60;;
23490;SDS011;14683;50.038;8.078;2023-08-06T05:39:29;1.25;;;0.70;;
23490;SDS011;14683;50.038;8.078;2023-08-06T05:42:30;1.45;;;0.70;;
23490;SDS011;14683;50.038;8.078;2023-08-06T05:45:32;0.82;;;0.60;;
23490;SDS011;14683;50.038;8.078;2023-08-06T05:48:33;0.60;;;0.60;;
23490;SDS011;14683;50.038;8.078;2023-08-06T05:51:34;0.95;;;0.70;;
23490;SDS011;14683;50.038;8.078;2023-08-06T05:54:35;1.52;;;0.85;;
23490;SDS011;14683;50.038;8.078;2023-08-06T05:57:36;0.43;;;0.43;;
23490;SDS011;14683;50.038;8.078;2023-08-06T06:00:37;0.70;;;0.68;;
23490;SDS011;14683;50.038;8.078;2023-08-06T06:03:38;0.95;;;0.60;;
23490;SDS011;14683;50.038;8.078;2023-08-06T06:06:40;0.60;;;0.60;;
23490;SDS011;14683;50.038;8.078;2023-08-06T06:09:42;1.50;;;0.80;;
23490;SDS011;14683;50.038;8.078;2023-08-06T06:12:43;0.60;;;0.60;;
23490;SDS011;14683;50.038;8.078;2023-08-06T06:15:46;0.70;;;0.50;;
23490;SDS011;14683;50.038;8.078;2023-08-06T06:18:48;0.65;;;0.65;;
23490;SDS011;14683;50.038;8.078;2023-08-06T06:21:49;0.65;;;0.60;;
23490;SDS011;14683;50.038;8.078;2023-08-06T06:24:50;0.70;;;0.70;;
23490;SDS011;14683;50.038;8.078;2023-08-06T06:27:51;0.57;;;0.57;;
23490;SDS011;14683;50.038;8.078;2023-08-06T06:30:52;0.80;;;0.55;;
23490;SDS011;14683;50.038;8.078;2023-08-06T06:33:53;0.73;;;0.73;;
23490;SDS011;14683;50.038;8.078;2023-08-06T06:36:55;1.88;;;1.10;;
23490;SDS011;14683;50.038;8.078;2023-08-06T06:39:56;0.88;;;0.70;;
23490;SDS011;14683;50.038;8.078;2023-08-06T06:42:57;0.68;;;0.68;;
23490;SDS011;14683;50.038;8.078;2023-08-06T06:45:58;0.82;;;0.60;;
23490;SDS011;14683;50.038;8.078;2023-08-06T06:49:00;0.70;;;0.70;;
23490;SDS011;14683;50.038;8.078;2023-08-06T06:52:01;0.68;;;0.68;;
23490;SDS011;14683;50.038;8.078;2023-08-06T06:55:03;1.48;;;0.60;;
23490;SDS011;14683;50.038;8.078;2023-08-06T06:58:04;0.93;;;0.93;;
23490;SDS011;14683;50.038;8.078;2023-08-06T07:01:05;1.52;;;0.90;;
23490;SDS011;14683;50.038;8.078;2023-08-06T07:04:06;0.70;;;0.70;;
23490;SDS011;14683;50.038;8.078;2023-08-06T07:07:07;0.95;;;0.70;;
23490;SDS011;14683;50.038;8.078;2023-08-06T07:10:09;0.70;;;0.70;;
23490;SDS011;14683;50.038;8.078;2023-08-06T07:13:10;0.60;;;0.60;;
23490;SDS011;14683;50.038;8.078;2023-08-06T07:16:12;1.77;;;0.60;;
23490;SDS011;14683;50.038;8.078;2023-08-06T07:19:13;0.60;;;0.60;;
23490;SDS011;14683;50.038;8.078;2023-08-06T07:22:14;1.00;;;0.73;;
23490;SDS011;14683;50.038;8.078;2023-08-06T07:25:15;0.52;;;0.50;;
23490;SDS011;14683;50.038;8.078;2023-08-06T07:28:17;0.40;;;0.40;;
23490;SDS011;14683;50.038;8.078;2023-08-06T07:31:18;0.38;;;0.38;;
23490;SDS011;14683;50.038;8.078;2023-08-06T07:34:19;0.40;;;0.40;;
23490;SDS011;14683;50.038;8.078;2023-08-06T07:37:20;0.68;;;0.60;;
23490;SDS011;14683;50.038;8.078;2023-08-06T07:40:21;1.30;;;0.40;;
23490;SDS011;14683;50.038;8.078;2023-08-06T07:43:23;0.30;;;0.30;;
23490;SDS011;14683;50.038;8.078;2023-08-06T07:46:24;0.45;;;0.30;;
23490;SDS011;14683;50.038;8.078;2023-08-06T07:49:25;0.68;;;0.50;;
23490;SDS011;14683;50.038;8.078;2023-08-06T07:52:27;0.40;;;0.40;;
23490;SDS011;14683;50.038;8.078;2023-08-06T07:55:28;0.35;;;0.30;;
23490;SDS011;14683;50.038;8.078;2023-08-06T07:58:29;0.77;;;0.47;;
23490;SDS011;14683;50.038;8.078;2023-08-06T08:01:30;0.43;;;0.30;;
23490;SDS011;14683;50.038;8.078;2023-08-06T08:04:32;0.40;;;0.40;;
23490;SDS011;14683;50.038;8.078;2023-08-06T08:07:33;1.38;;;0.40;;
23490;SDS011;14683;50.038;8.078;2023-08-06T08:10:34;1.48;;;0.50;;
23490;SDS011;14683;50.038;8.078;2023-08-06T08:13:36;1.17;;;0.68;;
23490;SDS011;14683;50.038;8.078;2023-08-06T08:16:37;0.85;;;0.50;;
23490;SDS011;14683;50.038;8.078;2023-08-06T08:19:39;0.55;;;0.43;;
23490;SDS011;14683;50.038;8.078;2023-08-06T08:22:41;0.30;;;0.30;;
23490;SDS011;14683;50.038;8.078;2023-08-06T08:25:42;0.73;;;0.35;;
23490;SDS011;14683;50.038;8.078;2023-08-06T08:28:43;0.65;;;0.40;;
23490;SDS011;14683;50.038;8.078;2023-08-06T08:31:44;0.30;;;0.30;;
23490;SDS011;14683;50.038;8.078;2023-08-06T08:34:46;1.17;;;0.38;;
23490;SDS011;14683;50.038;8.078;2023-08-06T08:37:47;1.13;;;0.40;;
23490;SDS011;14683;50.038;8.078;2023-08-06T08:40:49;1.17;;;0.55;;
23490;SDS011;14683;50.038;8.078;2023-08-06T08:43:52;0.40;;;0.30;;
23490;SDS011;14683;50.038;8.078;2023-08-06T08:46:54;0.38;;;0.38;;
23490;SDS011;14683;50.038;8.078;2023-08-06T08:49:55;1.05;;;0.32;;
23490;SDS011;14683;50.038;8.078;2023-08-06T08:52:58;0.55;;;0.32;;
23490;SDS011;14683;50.038;8.078;2023-08-06T08:55:59;1.85;;;0.40;;
23490;SDS011;14683;50.038;8.078;2023-08-06T08:59:00;0.65;;;0.28;;
23490;SDS011;14683;50.038;8.078;2023-08-06T09:02:01;0.40;;;0.40;;
23490;SDS011;14683;50.038;8.078;2023-08-06T09:05:03;0.32;;;0.32;;
23490;SDS011;14683;50.038;8.078;2023-08-06T09:08:05;0.22;;;0.22;;
23490;SDS011;14683;50.038;8.078;2023-08-06T09:11:09;0.38;;;0.35;;
23490;SDS011;14683;50.038;8.078;2023-08-06T09:14:11;0.25;;;0.25;;
23490;SDS011;14683;50.038;8.078;2023-08-06T09:17:12;0.63;;;0.30;;
23490;SDS011;14683;50.038;8.078;2023-08-06T09:20:14;0.30;;;0.30;;
23490;SDS011;14683;50.038;8.078;2023-08-06T09:23:16;0.82;;;0.30;;
23490;SDS011;14683;50.038;8.078;2023-08-06T09:26:17;0.88;;;0.40;;
23490;SDS011;14683;50.038;8.078;2023-08-06T09:29:18;0.20;;;0.20;;
23490;SDS011;14683;50.038;8.078;2023-08-06T09:32:19;0.50;;;0.30;;
23490;SDS011;14683;50.038;8.078;2023-08-06T09:35:21;0.43;;;0.30;;
23490;SDS011;14683;50.038;8.078;2023-08-06T09:38:22;0.50;;;0.50;;
23490;SDS011;14683;50.038;8.078;2023-08-06T09:41:26;0.35;;;0.35;;
23490;SDS011;14683;50.038;8.078;2023-08-06T09:44:31;0.45;;;0.22;;
23490;SDS011;14683;50.038;8.078;2023-08-06T09:47:33;0.50;;;0.30;;
23490;SDS011;14683;50.038;8.078;2023-08-06T09:50:35;0.45;;;0.40;;
23490;SDS011;14683;50.038;8.078;2023-08-06T09:53:37;0.32;;;0.30;;
23490;SDS011;14683;50.038;8.078;2023-08-06T09:56:39;0.30;;;0.30;;
23490;SDS011;14683;50.038;8.078;2023-08-06T09:59:41;0.80;;;0.20;;
23490;SDS011;14683;50.038;8.078;2023-08-06T10:02:43;0.38;;;0.20;;
23490;SDS011;14683;50.038;8.078;2023-08-06T10:05:46;0.20;;;0.20;;
23490;SDS011;14683;50.038;8.078;2023-08-06T10:08:47;0.20;;;0.20;;
23490;SDS011;14683;50.038;8.078;2023-08-06T10:11:51;0.80;;;0.40;;
23490;SDS011;14683;50.038;8.078;2023-08-06T10:14:55;0.20;;;0.20;;
23490;SDS011;14683;50.038;8.078;2023-08-06T10:17:59;0.43;;;0.20;;
23490;SDS011;14683;50.038;8.078;2023-08-06T10:21:00;1.55;;;0.30;;
23490;SDS011;14683;50.038;8.078;2023-08-06T10:24:01;0.20;;;0.20;;
23490;SDS011;14683;50.038;8.078;2023-08-06T10:27:04;0.40;;;0.10;;
23490;SDS011;14683;50.038;8.078;2023-08-06T10:30:29;0.20;;;0.20;;
23490;SDS011;14683;50.038;8.078;2023-08-06T10:33:42;0.20;;;0.20;;
23490;SDS011;14683;50.038;8.078;2023-08-06T10:36:44;0.20;;;0.20;;
23490;SDS011;14683;50.038;8.078;2023-08-06T10:39:49;0.20;;;0.20;;
23490;SDS011;14683;50.038;8.078;2023-08-06T10:42:54;0.22;;;0.20;;
23490;SDS011;14683;50.038;8.078;2023-08-06T10:45:55;0.75;;;0.10;;
23490;SDS011;14683;50.038;8.078;2023-08-06T10:48:57;0.63;;;0.13;;
23490;SDS011;14683;50.038;8.078;2023-08-06T10:51:59;0.20;;;0.20;;
23490;SDS011;14683;50.038;8.078;2023-08-06T10:55:00;0.13;;;0.13;;
23490;SDS011;14683;50.038;8.078;2023-08-06T10:58:01;0.80;;;0.13;;
23490;SDS011;14683;50.038;8.078;2023-08-06T11:01:03;0.10;;;0.10;;
23490;SDS011;14683;50.038;8.078;2023-08-06T11:04:04;0.28;;;0.10;;
23490;SDS011;14683;50.038;8.078;2023-08-06T11:07:06;0.15;;;0.15;;
23490;SDS011;14683;50.038;8.078;2023-08-06T11:10:08;0.30;;;0.20;;
23490;SDS011;14683;50.038;8.078;2023-08-06T11:13:11;0.43;;;0.20;;
23490;SDS011;14683;50.038;8.078;2023-08-06T11:16:12;0.20;;;0.20;;
23490;SDS011;14683;50.038;8.078;2023-08-06T11:19:17;0.47;;;0.30;;
23490;SDS011;14683;50.038;8.078;2023-08-06T11:22:20;0.10;;;0.10;;
23490;SDS011;14683;50.038;8.078;2023-08-06T11:25:21;0.20;;;0.20;;
23490;SDS011;14683;50.038;8.078;2023-08-06T11:28:23;0.38;;;0.38;;
23490;SDS011;14683;50.038;8.078;2023-08-06T11:31:24;0.25;;;0.20;;
23490;SDS011;14683;50.038;8.078;2023-08-06T11:34:26;0.17;;;0.17;;
23490;SDS011;14683;50.038;8.078;2023-08-06T11:37:27;0.35;;;0.30;;
23490;SDS011;14683;50.038;8.078;2023-08-06T11:40:28;0.93;;;0.22;;
23490;SDS011;14683;50.038;8.078;2023-08-06T11:43:30;0.40;;;0.20;;
23490;SDS011;14683;50.038;8.078;2023-08-06T11:46:50;0.40;;;0.40;;
23490;SDS011;14683;50.038;8.078;2023-08-06T11:49:56;0.20;;;0.20;;
23490;SDS011;14683;50.038;8.078;2023-08-06T11:52:58;0.70;;;0.20;;
23490;SDS011;14683;50.038;8.078;2023-08-06T11:56:01;0.85;;;0.40;;
23490;SDS011;14683;50.038;8.078;2023-08-06T11:59:02;0.45;;;0.38;;
23490;SDS011;14683;50.038;8.078;2023-08-06T12:02:04;0.98;;;0.50;;
23490;SDS011;14683;50.038;8.078;2023-08-06T12:05:12;0.82;;;0.45;;
23490;SDS011;14683;50.038;8.078;2023-08-06T12:08:14;1.88;;;0.50;;
23490;SDS011;14683;50.038;8.078;2023-08-06T12:11:15;0.77;;;0.40;;
23490;SDS011;14683;50.038;8.078;2023-08-06T12:14:17;0.45;;;0.45;;
23490;SDS011;14683;50.038;8.078;2023-08-06T12:17:18;0.50;;;0.50;;
23490;SDS011;14683;50.038;8.078;2023-08-06T12:20:19;1.88;;;0.80;;
23490;SDS011;14683;50.038;8.078;2023-08-06T12:23:20;3.30;;;0.60;;
23490;SDS011;14683;50.038;8.078;2023-08-06T12:26:22;1.02;;;0.60;;
23490;SDS011;14683;50.038;8.078;2023-08-06T12:29:23;1.17;;;0.70;;
23490;SDS011;14683;50.038;8.078;2023-08-06T12:32:25;0.55;;;0.55;;
23490;SDS011;14683;50.038;8.078;2023-08-06T12:35:26;0.93;;;0.80;;
23490;SDS011;14683;50.038;8.078;2023-08-06T12:38:28;1.48;;;0.60;;
23490;SDS011;14683;50.038;8.078;2023-08-06T12:41:33;0.82;;;0.50;;
23490;SDS011;14683;50.038;8.078;2023-08-06T12:44:34;0.68;;;0.50;;
23490;SDS011;14683;50.038;8.078;2023-08-06T12:47:36;1.08;;;0.52;;
23490;SDS011;14683;50.038;8.078;2023-08-06T12:50:37;1.63;;;0.70;;
23490;SDS011;14683;50.038;8.078;2023-08-06T12:53:38;0.70;;;0.50;;
23490;SDS011;14683;50.038;8.078;2023-08-06T12:56:39;0.70;;;0.70;;
23490;SDS011;14683;50.038;8.078;2023-08-06T12:59:40;1.17;;;0.80;;
23490;SDS011;14683;50.038;8.078;2023-08-06T13:02:41;1.83;;;0.73;;
23490;SDS011;14683;50.038;8.078;2023-08-06T13:05:42;1.70;;;0.60;;
23490;SDS011;14683;50.038;8.078;2023-08-06T13:08:44;0.60;;;0.60;;
23490;SDS011;14683;50.038;8.078;2023-08-06T13:11:46;0.80;;;0.30;;
23490;SDS011;14683;50.038;8.078;2023-08-06T13:14:50;0.45;;;0.40;;
23490;SDS011;14683;50.038;8.078;2023-08-06T13:17:53;0.30;;;0.30;;
23490;SDS011;14683;50.038;8.078;2023-08-06T13:20:54;0.35;;;0.35;;
23490;SDS011;14683;50.038;8.078;2023-08-06T13:23:56;0.57;;;0.40;;
23490;SDS011;14683;50.038;8.078;2023-08-06T13:26:57;0.20;;;0.20;;
23490;SDS011;14683;50.038;8.078;2023-08-06T13:29:58;0.30;;;0.30;;
23490;SDS011;14683;50.038;8.078;2023-08-06T13:32:59;1.60;;;0.40;;
23490;SDS011;14683;50.038;8.078;2023-08-06T13:36:00;1.48;;;0.22;;
23490;SDS011;14683;50.038;8.078;2023-08-06T13:39:01;1.02;;;0.50;;
23490;SDS011;14683;50.038;8.078;2023-08-06T13:42:04;1.45;;;0.47;;
23490;SDS011;14683;50.038;8.078;2023-08-06T13:45:05;1.67;;;0.60;;
23490;SDS011;14683;50.038;8.078;2023-08-06T13:48:07;2.35;;;0.93;;
23490;SDS011;14683;50.038;8.078;2023-08-06T13:51:09;1.50;;;1.10;;
23490;SDS011;14683;50.038;8.078;2023-08-06T13:54:14;1.85;;;1.42;;
23490;SDS011;14683;50.038;8.078;2023-08-06T13:57:15;4.13;;;2.72;;
23490;SDS011;14683;50.038;8.078;2023-08-06T14:00:18;11.43;;;5.10;;
23490;SDS011;14683;50.038;8.078;2023-08-06T14:03:19;7.13;;;2.85;;
23490;SDS011;14683;50.038;8.078;2023-08-06T14:06:20;6.47;;;3.58;;
23490;SDS011;14683;50.038;8.078;2023-08-06T14:09:21;2.20;;;1.40;;
23490;SDS011;14683;50.038;8.078;2023-08-06T14:12:22;4.65;;;2.10;;
23490;SDS011;14683;50.038;8.078;2023-08-06T14:15:24;1.55;;;1.40;;
23490;SDS011;14683;50.038;8.078;2023-08-06T14:18:25;0.90;;;0.40;;
23490;SDS011;14683;50.038;8.078;2023-08-06T14:21:26;0.70;;;0.22;;
23490;SDS011;14683;50.038;8.078;2023-08-06T14:24:27;0.52;;;0.30;;
23490;SDS011;14683;50.038;8.078;2023-08-06T14:27:28;0.63;;;0.40;;
23490;SDS011;14683;50.038;8.078;2023-08-06T14:30:29;0.55;;;0.30;;
23490;SDS011;14683;50.038;8.078;2023-08-06T14:33:30;0.28;;;0.22;;
23490;SDS011;14683;50.038;8.078;2023-08-06T14:36:32;0.30;;;0.30;;
23490;SDS011;14683;50.038;8.078;2023-08-06T14:39:33;1.88;;;0.20;;
23490;SDS011;14683;50.038;8.078;2023-08-06T14:42:34;0.20;;;0.20;;
23490;SDS011;14683;50.038;8.078;2023-08-06T14:45:39;0.40;;;0.20;;
23490;SDS011;14683;50.038;8.078;2023-08-06T14:48:40;0.10;;;0.10;;
23490;SDS011;14683;50.038;8.078;2023-08-06T14:51:43;1.00;;;0.40;;
23490;SDS011;14683;50.038;8.078;2023-08-06T14:54:44;0.22;;;0.20;;
23490;SDS011;14683;50.038;8.078;2023-08-06T14:57:45;0.88;;;0.22;;
23490;SDS011;14683;50.038;8.078;2023-08-06T15:00:46;1.13;;;0.20;;
23490;SDS011;14683;50.038;8.078;2023-08-06T15:03:47;0.50;;;0.20;;
23490;SDS011;14683;50.038;8.078;2023-08-06T15:06:48;0.20;;;0.20;;
23490;SDS011;14683;50.038;8.078;2023-08-06T15:09:49;3.63;;;0.30;;
23490;SDS011;14683;50.038;8.078;2023-08-06T15:12:50;0.35;;;0.20;;
23490;SDS011;14683;50.038;8.078;2023-08-06T15:15:52;0.93;;;0.93;;
23490;SDS011;14683;50.038;8.078;2023-08-06T15:18:53;0.65;;;0.25;;
23490;SDS011;14683;50.038;8.078;2023-08-06T15:21:54;0.30;;;0.30;;
23490;SDS011;14683;50.038;8.078;2023-08-06T15:24:55;0.63;;;0.30;;
23490;SDS011;14683;50.038;8.078;2023-08-06T15:27:56;0.98;;;0.25;;
23490;SDS011;14683;50.038;8.078;2023-08-06T15:30:57;1.10;;;0.30;;
23490;SDS011;14683;50.038;8.078;2023-08-06T15:33:58;0.38;;;0.10;;
23490;SDS011;14683;50.038;8.078;2023-08-06T15:37:00;0.35;;;0.20;;
23490;SDS011;14683;50.038;8.078;2023-08-06T15:40:01;0.10;;;0.10;;
23490;SDS011;14683;50.038;8.078;2023-08-06T15:43:02;0.50;;;0.20;;
23490;SDS011;14683;50.038;8.078;2023-08-06T15:46:04;0.47;;;0.20;;
23490;SDS011;14683;50.038;8.078;2023-08-06T15:49:05;0.20;;;0.20;;
23490;SDS011;14683;50.038;8.078;2023-08-06T15:52:06;0.65;;;0.28;;
23490;SDS011;14683;50.038;8.078;2023-08-06T15:55:07;0.20;;;0.20;;
23490;SDS011;14683;50.038;8.078;2023-08-06T15:58:09;0.28;;;0.20;;
23490;SDS011;14683;50.038;8.078;2023-08-06T16:01:10;0.28;;;0.20;;
23490;SDS011;14683;50.038;8.078;2023-08-06T16:04:11;0.32;;;0.30;;
23490;SDS011;14683;50.038;8.078;2023-08-06T16:07:12;0.98;;;0.40;;
23490;SDS011;14683;50.038;8.078;2023-08-06T16:10:13;0.30;;;0.30;;
23490;SDS011;14683;50.038;8.078;2023-08-06T16:13:14;0.30;;;0.30;;
23490;SDS011;14683;50.038;8.078;2023-08-06T16:16:15;1.85;;;0.32;;
23490;SDS011;14683;50.038;8.078;2023-08-06T16:19:16;1.00;;;0.40;;
23490;SDS011;14683;50.038;8.078;2023-08-06T16:22:18;0.20;;;0.20;;
23490;SDS011;14683;50.038;8.078;2023-08-06T16:25:19;0.60;;;0.30;;
23490;SDS011;14683;50.038;8.078;2023-08-06T16:28:20;0.50;;;0.50;;
23490;SDS011;14683;50.038;8.078;2023-08-06T16:31:21;0.20;;;0.20;;
23490;SDS011;14683;50.038;8.078;2023-08-06T16:34:22;0.30;;;0.30;;
23490;SDS011;14683;50.038;8.078;2023-08-06T16:37:24;0.77;;;0.55;;
23490;SDS011;14683;50.038;8.078;2023-08-06T16:40:25;0.73;;;0.40;;
23490;SDS011;14683;50.038;8.078;2023-08-06T16:43:27;0.95;;;0.30;;
23490;SDS011;14683;50.038;8.078;2023-08-06T16:46:28;1.38;;;0.30;;
23490;SDS011;14683;50.038;8.078;2023-08-06T16:49:29;0.55;;;0.50;;
23490;SDS011;14683;50.038;8.078;2023-08-06T16:52:30;0.47;;;0.40;;
23490;SDS011;14683;50.038;8.078;2023-08-06T16:55:31;0.80;;;0.40;;
23490;SDS011;14683;50.038;8.078;2023-08-06T16:58:32;0.80;;;0.43;;
23490;SDS011;14683;50.038;8.078;2023-08-06T17:01:34;0.43;;;0.43;;
23490;SDS011;14683;50.038;8.078;2023-08-06T17:04:36;0.30;;;0.30;;
23490;SDS011;14683;50.038;8.078;2023-08-06T17:07:37;0.45;;;0.30;;
23490;SDS011;14683;50.038;8.078;2023-08-06T17:10:39;1.02;;;0.50;;
23490;SDS011;14683;50.038;8.078;2023-08-06T17:13:40;1.10;;;0.30;;
23490;SDS011;14683;50.038;8.078;2023-08-06T17:16:41;1.13;;;0.30;;
23490;SDS011;14683;50.038;8.078;2023-08-06T17:19:42;0.60;;;0.60;;
23490;SDS011;14683;50.038;8.078;2023-08-06T17:22:44;0.40;;;0.40;;
23490;SDS011;14683;50.038;8.078;2023-08-06T17:25:45;0.60;;;0.30;;
23490;SDS011;14683;50.038;8.078;2023-08-06T17:28:46;1.00;;;0.70;;
23490;SDS011;14683;50.038;8.078;2023-08-06T17:31:48;0.25;;;0.25;;
23490;SDS011;14683;50.038;8.078;2023-08-06T17:34:49;0.35;;;0.30;;
23490;SDS011;14683;50.038;8.078;2023-08-06T17:37:50;0.35;;;0.35;;
23490;SDS011;14683;50.038;8.078;2023-08-06T17:40:54;2.53;;;0.35;;
23490;SDS011;14683;50.038;8.078;2023-08-06T17:43:56;1.73;;;0.32;;
23490;SDS011;14683;50.038;8.078;2023-08-06T17:46:58;1.45;;;0.30;;
23490;SDS011;14683;50.038;8.078;2023-08-06T17:49:59;0.30;;;0.30;;
23490;SDS011;14683;50.038;8.078;2023-08-06T17:53:00;0.50;;;0.20;;
23490;SDS011;14683;50.038;8.078;2023-08-06T17:56:01;0.57;;;0.28;;
23490;SDS011;14683;50.038;8.078;2023-08-06T17:59:03;1.55;;;0.30;;
23490;SDS011;14683;50.038;8.078;2023-08-06T18:02:04;1.75;;;0.40;;
23490;SDS011;14683;50.038;8.078;2023-08-06T18:05:06;0.63;;;0.35;;
23490;SDS011;14683;50.038;8.078;2023-08-06T18:08:07;0.20;;;0.20;;
23490;SDS011;14683;50.038;8.078;2023-08-06T18:11:09;0.93;;;0.30;;
23490;SDS011;14683;50.038;8.078;2023-08-06T18:14:10;0.80;;;0.38;;
23490;SDS011;14683;50.038;8.078;2023-08-06T18:17:12;0.20;;;0.20;;
23490;SDS011;14683;50.038;8.078;2023-08-06T18:20:14;1.42;;;0.40;;
23490;SDS011;14683;50.038;8.078;2023-08-06T18:23:15;0.25;;;0.20;;
23490;SDS011;14683;50.038;8.078;2023-08-06T18:26:17;0.57;;;0.30;;
23490;SDS011;14683;50.038;8.078;2023-08-06T18:29:18;0.40;;;0.30;;
23490;SDS011;14683;50.038;8.078;2023-08-06T18:32:19;0.63;;;0.30;;
23490;SDS011;14683;50.038;8.078;2023-08-06T18:35:21;0.22;;;0.22;;
23490;SDS011;14683;50.038;8.078;2023-08-06T18:38:22;0.60;;;0.60;;
23490;SDS011;14683;50.038;8.078;2023-08-06T18:41:27;0.63;;;0.20;;
23490;SDS011;14683;50.038;8.078;2023-08-06T18:44:28;0.25;;;0.20;;
23490;SDS011;14683;50.038;8.078;2023-08-06T18:47:30;0.75;;;0.38;;
23490;SDS011;14683;50.038;8.078;2023-08-06T18:50:31;0.32;;;0.32;;
23490;SDS011;14683;50.038;8.078;2023-08-06T18:53:37;0.20;;;0.20;;
23490;SDS011;14683;50.038;8.078;2023-08-06T18:56:39;0.10;;;0.10;;
23490;SDS011;14683;50.038;8.078;2023-08-06T18:59:40;0.10;;;0.10;;
23490;SDS011;14683;50.038;8.078;2023-08-06T19:02:41;0.47;;;0.32;;
23490;SDS011;14683;50.038;8.078;2023-08-06T19:05:42;0.20;;;0.20;;
23490;SDS011;14683;50.038;8.078;2023-08-06T19:08:44;0.20;;;0.20;;
23490;SDS011;14683;50.038;8.078;2023-08-06T19:11:45;0.80;;;0.40;;
23490;SDS011;14683;50.038;8.078;2023-08-06T19:14:46;0.70;;;0.20;;
23490;SDS011;14683;50.038;8.078;2023-08-06T19:17:50;1.27;;;0.30;;
23490;SDS011;14683;50.038;8.078;2023-08-06T19:20:54;0.93;;;0.20;;
23490;SDS011;14683;50.038;8.078;2023-08-06T19:23:56;0.20;;;0.20;;
23490;SDS011;14683;50.038;8.078;2023-08-06T19:26:58;2.03;;;0.30;;
23490;SDS011;14683;50.038;8.078;2023-08-06T19:29:59;0.25;;;0.25;;
23490;SDS011;14683;50.038;8.078;2023-08-06T19:33:00;0.50;;;0.20;;
23490;SDS011;14683;50.038;8.078;2023-08-06T19:36:01;0.20;;;0.20;;
23490;SDS011;14683;50.038;8.078;2023-08-06T19:39:02;2.28;;;0.57;;
23490;SDS011;14683;50.038;8.078;2023-08-06T19:42:04;0.65;;;0.20;;
23490;SDS011;14683;50.038;8.078;2023-08-06T19:45:05;0.95;;;0.35;;
23490;SDS011;14683;50.038;8.078;2023-08-06T19:48:07;0.20;;;0.20;;
23490;SDS011;14683;50.038;8.078;2023-08-06T19:51:08;0.32;;;0.20;;
23490;SDS011;14683;50.038;8.078;2023-08-06T19:54:10;0.30;;;0.20;;
23490;SDS011;14683;50.038;8.078;2023-08-06T19:57:11;0.30;;;0.20;;
23490;SDS011;14683;50.038;8.078;2023-08-06T20:00:12;0.93;;;0.30;;
23490;SDS011;14683;50.038;8.078;2023-08-06T20:03:14;1.17;;;0.30;;
23490;SDS011;14683;50.038;8.078;2023-08-06T20:06:15;0.75;;;0.22;;
23490;SDS011;14683;50.038;8.078;2023-08-06T20:09:16;2.25;;;0.32;;
23490;SDS011;14683;50.038;8.078;2023-08-06T20:12:17;0.15;;;0.15;;
23490;SDS011;14683;50.038;8.078;2023-08-06T20:15:18;0.20;;;0.20;;
23490;SDS011;14683;50.038;8.078;2023-08-06T20:18:19;0.55;;;0.22;;
23490;SDS011;14683;50.038;8.078;2023-08-06T20:21:26;0.93;;;0.20;;
23490;SDS011;14683;50.038;8.078;2023-08-06T20:24:28;0.20;;;0.20;;
23490;SDS011;14683;50.038;8.078;2023-08-06T20:27:29;0.95;;;0.22;;
23490;SDS011;14683;50.038;8.078;2023-08-06T20:30:30;1.05;;;0.20;;
23490;SDS011;14683;50.038;8.078;2023-08-06T20:33:32;0.20;;;0.20;;
23490;SDS011;14683;50.038;8.078;2023-08-06T20:36:33;0.28;;;0.20;;
23490;SDS011;14683;50.038;8.078;2023-08-06T20:39:35;0.38;;;0.20;;
23490;SDS011;14683;50.038;8.078;2023-08-06T20:42:37;0.30;;;0.20;;
23490;SDS011;14683;50.038;8.078;2023-08-06T20:45:38;0.45;;;0.20;;
23490;SDS011;14683;50.038;8.078;2023-08-06T20:48:40;0.32;;;0.20;;
23490;SDS011;14683;50.038;8.078;2023-08-06T20:51:42;0.25;;;0.20;;
23490;SDS011;14683;50.038;8.078;2023-08-06T20:54:43;0.10;;;0.10;;
23490;SDS011;14683;50.038;8.078;2023-08-06T20:57:44;0.25;;;0.20;;
